createdAt,value
2018-12-08T00:00:51.366Z,0.80
2018-12-08T00:03:20.724Z,1.67
2018-12-08T00:05:49.912Z,2.43
2018-12-08T00:08:19.152Z,1.10
2018-12-08T00:10:48.406Z,1.73
2018-12-08T00:13:17.686Z,1.40
2018-12-08T00:15:46.854Z,1.90
2018-12-08T00:18:16.145Z,0.97
2018-12-08T00:20:45.352Z,2.07
2018-12-08T00:23:14.536Z,1.43
2018-12-08T00:25:43.739Z,1.20
2018-12-08T00:29:15.697Z,3.00
2018-12-08T00:31:46.342Z,1.50
2018-12-08T00:34:15.511Z,1.17
2018-12-08T00:36:45.143Z,1.97
2018-12-08T00:39:14.342Z,1.97
2018-12-08T00:41:43.633Z,2.07
2018-12-08T00:44:12.915Z,1.90
2018-12-08T00:46:42.078Z,1.47
2018-12-08T00:49:11.348Z,1.47
2018-12-08T00:51:40.597Z,1.40
2018-12-08T00:54:09.806Z,1.13
2018-12-08T00:56:38.996Z,1.80
2018-12-08T00:59:08.242Z,1.73
2018-12-08T01:01:37.430Z,2.20
2018-12-08T01:04:06.628Z,1.53
2018-12-08T01:06:35.831Z,2.17
2018-12-08T01:09:06.251Z,1.87
2018-12-08T01:11:35.423Z,1.67
2018-12-08T01:14:04.619Z,1.53
2018-12-08T01:16:33.887Z,1.33
2018-12-08T01:19:03.189Z,1.77
2018-12-08T01:21:32.384Z,1.30
2018-12-08T01:24:01.560Z,2.27
2018-12-08T01:26:30.749Z,1.30
2018-12-08T01:29:00.010Z,1.40
2018-12-08T01:31:29.201Z,1.23
2018-12-08T01:33:58.377Z,1.03
2018-12-08T01:36:27.579Z,1.20
2018-12-08T01:38:56.847Z,2.37
2018-12-08T01:41:26.040Z,1.80
2018-12-08T01:43:55.230Z,1.37
2018-12-08T01:46:24.392Z,1.77
2018-12-08T01:48:53.760Z,1.63
2018-12-08T01:51:22.947Z,1.70
2018-12-08T01:53:52.123Z,1.27
2018-12-08T01:56:21.318Z,2.03
2018-12-08T01:58:50.514Z,2.07
2018-12-08T02:01:19.798Z,2.40
2018-12-08T02:03:49.021Z,2.47
2018-12-08T02:06:18.220Z,0.60
2018-12-08T02:08:47.693Z,1.47
2018-12-08T02:11:24.707Z,0.77
2018-12-08T02:13:48.139Z,1.00
2018-12-08T02:16:17.324Z,1.83
2018-12-08T02:18:46.567Z,1.37
2018-12-08T02:21:16.209Z,1.47
2018-12-08T02:23:45.371Z,2.37
2018-12-08T02:26:14.561Z,1.10
2018-12-08T02:28:43.755Z,1.33
2018-12-08T02:31:12.943Z,1.40
2018-12-08T02:33:42.203Z,1.30
2018-12-08T02:36:11.354Z,1.47
2018-12-08T02:38:42.227Z,1.40
2018-12-08T02:41:11.672Z,1.00
2018-12-08T02:43:40.869Z,1.13
2018-12-08T02:46:10.040Z,1.77
2018-12-08T02:48:39.337Z,1.90
2018-12-08T02:51:08.529Z,1.57
2018-12-08T02:53:38.551Z,0.97
2018-12-08T02:56:07.730Z,1.07
2018-12-08T02:58:37.047Z,1.53
2018-12-08T03:01:06.212Z,1.20
2018-12-08T03:03:35.378Z,1.53
2018-12-08T03:06:04.602Z,1.40
2018-12-08T03:08:33.796Z,1.40
2018-12-08T03:11:02.972Z,3.33
2018-12-08T03:13:32.153Z,1.50
2018-12-08T03:16:01.390Z,1.50
2018-12-08T03:18:30.595Z,1.30
2018-12-08T03:20:59.767Z,1.03
2018-12-08T03:23:28.968Z,1.30
2018-12-08T03:25:58.349Z,1.77
2018-12-08T03:28:27.521Z,1.73
2018-12-08T03:30:56.723Z,1.50
2018-12-08T03:33:25.917Z,0.97
2018-12-08T03:35:55.122Z,2.07
2018-12-08T03:38:24.482Z,0.97
2018-12-08T03:40:53.662Z,1.17
2018-12-08T03:43:22.875Z,0.83
2018-12-08T03:45:52.045Z,3.40
2018-12-08T03:48:21.269Z,1.50
2018-12-08T03:50:50.475Z,2.23
2018-12-08T03:53:19.641Z,1.20
2018-12-08T03:55:48.803Z,1.40
2018-12-08T03:58:18.074Z,1.60
2018-12-08T04:00:47.276Z,1.30
2018-12-08T04:03:16.466Z,1.23
2018-12-08T04:05:45.658Z,1.27
2018-12-08T04:08:14.847Z,1.03
2018-12-08T04:10:44.094Z,0.97
2018-12-08T04:13:13.281Z,1.07
2018-12-08T04:15:49.004Z,1.37
2018-12-08T04:18:18.203Z,1.80
2018-12-08T04:20:47.403Z,1.37
2018-12-08T04:23:16.566Z,1.00
2018-12-08T04:25:45.718Z,0.77
2018-12-08T04:28:14.975Z,0.97
2018-12-08T04:30:44.214Z,1.10
2018-12-08T04:33:13.394Z,0.90
2018-12-08T04:35:42.562Z,2.37
2018-12-08T04:38:11.786Z,1.73
2018-12-08T04:40:40.974Z,1.20
2018-12-08T04:43:10.175Z,0.70
2018-12-08T04:45:39.339Z,1.73
2018-12-08T04:48:08.519Z,1.20
2018-12-08T04:50:37.705Z,1.23
2018-12-08T04:53:06.949Z,1.03
2018-12-08T04:55:36.106Z,1.03
2018-12-08T04:58:05.372Z,1.00
2018-12-08T05:00:34.539Z,3.27
2018-12-08T05:03:04.072Z,1.87
2018-12-08T05:05:33.309Z,1.80
2018-12-08T05:08:02.465Z,1.20
2018-12-08T05:10:31.627Z,1.17
2018-12-08T05:13:00.905Z,2.50
2018-12-08T05:15:30.123Z,1.27
2018-12-08T05:17:59.387Z,0.80
2018-12-08T05:20:28.562Z,0.73
2018-12-08T05:22:57.719Z,1.00
2018-12-08T05:25:26.915Z,1.03
2018-12-08T05:27:56.213Z,2.33
2018-12-08T05:30:25.450Z,1.17
2018-12-08T05:32:54.658Z,0.90
2018-12-08T05:35:23.946Z,1.20
2018-12-08T05:37:53.148Z,0.90
2018-12-08T05:40:22.375Z,1.77
2018-12-08T05:42:51.609Z,1.17
2018-12-08T05:45:20.815Z,0.93
2018-12-08T05:47:50.090Z,1.10
2018-12-08T05:50:19.287Z,0.70
2018-12-08T05:52:48.456Z,2.17
2018-12-08T05:55:17.679Z,1.00
2018-12-08T05:57:47.015Z,2.03
2018-12-08T06:00:16.223Z,0.77
2018-12-08T06:02:45.484Z,1.00
2018-12-08T06:05:14.841Z,1.00
2018-12-08T06:07:44.359Z,2.00
2018-12-08T06:10:13.676Z,1.70
2018-12-08T06:12:43.131Z,1.03
2018-12-08T06:15:12.293Z,0.73
2018-12-08T06:17:41.574Z,1.07
2018-12-08T06:20:10.811Z,0.83
2018-12-08T06:22:40.066Z,0.97
2018-12-08T06:25:14.560Z,0.67
2018-12-08T06:28:10.060Z,1.20
2018-12-08T06:30:39.394Z,1.13
2018-12-08T06:33:08.613Z,0.70
2018-12-08T06:35:37.922Z,1.40
2018-12-08T06:38:07.674Z,1.47
2018-12-08T06:40:36.889Z,0.60
2018-12-08T06:43:06.101Z,1.60
2018-12-08T06:45:35.367Z,1.70
2018-12-08T06:48:04.669Z,1.27
2018-12-08T06:50:33.950Z,0.90
2018-12-08T06:53:03.202Z,1.90
2018-12-08T06:55:32.499Z,2.17
2018-12-08T06:58:01.782Z,2.40
2018-12-08T07:00:31.065Z,1.03
2018-12-08T07:03:00.262Z,2.37
2018-12-08T07:05:29.462Z,0.97
2018-12-08T07:07:58.851Z,2.93
2018-12-08T07:10:28.325Z,8.87
2018-12-08T07:12:57.507Z,6.90
2018-12-08T07:15:26.694Z,5.00
2018-12-08T07:17:56.096Z,3.40
2018-12-08T07:20:25.437Z,5.30
2018-12-08T07:22:54.774Z,4.47
2018-12-08T07:25:25.472Z,5.30
2018-12-08T07:27:57.404Z,5.17
2018-12-08T07:30:27.688Z,4.67
2018-12-08T07:32:57.224Z,5.47
2018-12-08T07:35:26.480Z,8.13
2018-12-08T07:37:55.733Z,5.83
2018-12-08T07:40:25.245Z,3.43
2018-12-08T07:42:58.454Z,5.27
2018-12-08T07:45:29.212Z,6.50
2018-12-08T07:47:59.071Z,6.83
2018-12-08T07:50:28.429Z,9.17
2018-12-08T07:52:57.738Z,8.90
2018-12-08T07:55:26.959Z,6.97
2018-12-08T07:57:56.221Z,9.97
2018-12-08T08:00:25.480Z,10.10
2018-12-08T08:02:54.756Z,8.37
2018-12-08T08:05:24.061Z,9.13
2018-12-08T08:07:56.909Z,9.00
2018-12-08T08:10:26.321Z,9.23
2018-12-08T08:12:57.906Z,10.73
2018-12-08T08:15:27.232Z,9.47
2018-12-08T08:17:56.619Z,11.30
2018-12-08T08:20:25.890Z,10.93
2018-12-08T08:22:55.191Z,12.73
2018-12-08T08:25:24.484Z,8.73
2018-12-08T08:27:53.748Z,10.97
2018-12-08T08:30:22.984Z,8.70
2018-12-08T08:32:52.288Z,9.63
2018-12-08T08:35:21.629Z,8.33
2018-12-08T08:37:50.982Z,8.60
2018-12-08T08:40:20.816Z,8.10
2018-12-08T08:42:50.031Z,8.47
2018-12-08T08:45:19.384Z,7.10
2018-12-08T08:47:49.788Z,7.53
2018-12-08T08:50:19.026Z,10.90
2018-12-08T08:52:48.263Z,9.23
2018-12-08T08:55:17.589Z,6.37
2018-12-08T08:57:46.953Z,7.67
2018-12-08T09:00:16.223Z,7.60
2018-12-08T09:02:45.449Z,7.57
2018-12-08T09:05:14.791Z,8.87
2018-12-08T09:07:44.099Z,6.90
2018-12-08T09:10:13.415Z,7.80
2018-12-08T09:12:42.791Z,9.23
2018-12-08T09:15:12.183Z,8.80
2018-12-08T09:17:42.883Z,7.77
2018-12-08T09:20:12.520Z,10.77
2018-12-08T09:22:42.147Z,8.83
2018-12-08T09:25:11.889Z,10.67
2018-12-08T09:27:41.572Z,10.27
2018-12-08T09:30:12.152Z,11.13
2018-12-08T09:32:41.459Z,9.20
2018-12-08T09:35:10.855Z,10.53
2018-12-08T09:37:40.175Z,12.07
2018-12-08T09:40:15.848Z,13.40
2018-12-08T09:42:45.139Z,11.03
2018-12-08T09:45:14.507Z,10.23
2018-12-08T09:47:43.878Z,8.73
2018-12-08T09:50:13.141Z,6.37
2018-12-08T09:52:42.397Z,7.97
2018-12-08T09:55:15.040Z,8.10
2018-12-08T09:57:44.301Z,12.13
2018-12-08T10:00:13.594Z,11.27
2018-12-08T10:02:43.066Z,11.60
2018-12-08T10:05:12.379Z,8.50
2018-12-08T10:07:41.692Z,12.23
2018-12-08T10:10:11.085Z,9.73
2018-12-08T10:12:40.358Z,11.73
2018-12-08T10:15:14.076Z,10.50
2018-12-08T10:17:45.478Z,12.47
2018-12-08T10:20:14.757Z,12.07
2018-12-08T10:22:44.083Z,12.17
2018-12-08T10:25:13.361Z,10.00
2018-12-08T10:27:42.821Z,13.43
2018-12-08T10:30:12.223Z,8.97
2018-12-08T10:32:41.659Z,8.47
2018-12-08T10:35:12.539Z,13.43
2018-12-08T10:37:42.050Z,10.37
2018-12-08T10:40:11.741Z,8.10
2018-12-08T10:42:40.977Z,11.97
2018-12-08T10:45:10.496Z,10.57
2018-12-08T10:47:39.777Z,11.27
2018-12-08T10:50:11.382Z,10.43
2018-12-08T10:52:40.618Z,6.37
2018-12-08T10:55:14.385Z,14.43
2018-12-08T10:57:43.691Z,13.03
2018-12-08T11:00:17.985Z,13.13
2018-12-08T11:02:58.053Z,12.03
2018-12-08T11:05:27.323Z,10.27
2018-12-08T11:07:56.739Z,9.37
2018-12-08T11:10:26.046Z,11.67
2018-12-08T11:12:55.254Z,10.20
2018-12-08T11:15:24.632Z,8.83
2018-12-08T11:17:55.004Z,9.53
2018-12-08T11:20:24.304Z,10.70
2018-12-08T11:22:53.588Z,8.97
2018-12-08T11:25:23.064Z,7.70
2018-12-08T11:27:52.423Z,13.80
2018-12-08T11:30:21.723Z,39.10
2018-12-08T11:32:50.961Z,15.50
2018-12-08T11:35:20.277Z,19.27
2018-12-08T11:37:50.398Z,13.53
2018-12-08T11:40:19.743Z,9.33
2018-12-08T11:42:48.986Z,9.70
2018-12-08T11:45:18.338Z,14.10
2018-12-08T11:47:47.682Z,12.53
2018-12-08T11:50:16.939Z,10.57
2018-12-08T11:52:46.203Z,12.60
2018-12-08T11:55:15.579Z,14.20
2018-12-08T11:57:44.897Z,9.20
2018-12-08T12:00:14.274Z,10.40
2018-12-08T12:02:43.517Z,16.20
2018-12-08T12:05:13.705Z,10.37
2018-12-08T12:07:43.007Z,12.33
2018-12-08T12:10:12.403Z,11.67
2018-12-08T12:12:41.721Z,11.70
2018-12-08T12:15:11.035Z,7.00
2018-12-08T12:17:40.310Z,8.00
2018-12-08T12:20:09.527Z,7.20
2018-12-08T12:22:38.869Z,9.10
2018-12-08T12:25:08.450Z,7.77
2018-12-08T12:27:37.665Z,8.10
2018-12-08T12:30:08.556Z,6.00
2018-12-08T12:32:37.942Z,7.33
2018-12-08T12:35:07.295Z,5.60
2018-12-08T12:37:36.506Z,8.60
2018-12-08T12:40:06.250Z,7.80
2018-12-08T12:42:35.532Z,9.17
2018-12-08T12:45:04.716Z,6.97
2018-12-08T12:47:34.942Z,9.07
2018-12-08T12:50:04.819Z,7.10
2018-12-08T12:52:34.132Z,7.57
2018-12-08T12:55:03.342Z,10.30
2018-12-08T12:57:32.662Z,6.77
2018-12-08T13:00:01.965Z,8.70
2018-12-08T13:02:31.206Z,6.20
2018-12-08T13:05:00.530Z,8.20
2018-12-08T13:07:29.767Z,6.10
2018-12-08T13:09:58.930Z,6.57
2018-12-08T13:12:28.158Z,4.83
2018-12-08T13:14:57.584Z,7.37
2018-12-08T13:17:27.160Z,6.60
2018-12-08T13:19:56.405Z,6.27
2018-12-08T13:22:25.621Z,7.00
2018-12-08T13:25:04.594Z,7.53
2018-12-08T13:27:34.019Z,8.13
2018-12-08T13:30:03.294Z,8.37
2018-12-08T13:32:32.478Z,6.50
2018-12-08T13:35:01.715Z,5.10
2018-12-08T13:37:31.027Z,5.27
2018-12-08T13:40:00.248Z,6.10
2018-12-08T13:42:29.451Z,7.27
2018-12-08T13:45:15.302Z,6.87
2018-12-08T13:47:44.961Z,5.27
2018-12-08T13:50:14.237Z,7.97
2018-12-08T13:52:43.472Z,8.47
2018-12-08T13:55:12.669Z,7.70
2018-12-08T13:57:42.008Z,6.07
2018-12-08T14:00:11.251Z,7.83
2018-12-08T14:02:40.507Z,7.17
2018-12-08T14:05:09.727Z,6.10
2018-12-08T14:07:39.091Z,8.63
2018-12-08T14:10:08.643Z,8.20
2018-12-08T14:12:37.946Z,5.90
2018-12-08T14:15:07.241Z,6.17
2018-12-08T14:17:36.638Z,5.43
2018-12-08T14:20:16.698Z,4.73
2018-12-08T14:22:45.906Z,7.43
2018-12-08T14:25:15.148Z,7.83
2018-12-08T14:27:44.490Z,7.43
2018-12-08T14:30:13.821Z,7.50
2018-12-08T14:32:43.118Z,6.83
2018-12-08T14:35:12.345Z,5.10
2018-12-08T14:37:41.727Z,5.73
2018-12-08T14:40:11.101Z,4.97
2018-12-08T14:46:30.678Z,9.87
2018-12-08T14:48:59.998Z,4.87
2018-12-08T14:51:29.886Z,4.50
2018-12-08T14:54:00.939Z,7.93
2018-12-08T14:56:30.162Z,8.97
2018-12-08T14:58:59.528Z,6.23
2018-12-08T15:01:28.813Z,10.07
2018-12-08T15:03:59.291Z,6.13
2018-12-08T15:06:28.871Z,5.63
2018-12-08T15:08:58.540Z,3.63
2018-12-08T15:11:27.918Z,5.13
2018-12-08T15:13:59.102Z,4.00
2018-12-08T15:16:28.399Z,3.80
2018-12-08T15:18:57.770Z,7.27
2018-12-08T15:21:27.427Z,4.20
2018-12-08T15:23:56.714Z,3.37
2018-12-08T15:26:26.147Z,2.97
2018-12-08T15:28:55.450Z,6.00
2018-12-08T15:31:24.710Z,3.40
2018-12-08T15:33:54.001Z,4.03
2018-12-08T15:39:07.324Z,3.90
2018-12-08T15:41:36.594Z,5.97
2018-12-08T15:44:05.950Z,4.40
2018-12-08T15:46:38.319Z,3.83
2018-12-08T15:49:07.674Z,6.57
2018-12-08T15:51:37.007Z,4.97
2018-12-08T15:54:06.399Z,5.17
2018-12-08T15:56:35.667Z,4.77
2018-12-08T15:59:05.109Z,3.70
2018-12-08T16:01:34.339Z,4.67
2018-12-08T16:04:03.602Z,3.87
2018-12-08T16:06:46.696Z,5.27
2018-12-08T16:09:15.989Z,6.53
2018-12-08T16:11:45.222Z,5.07
2018-12-08T16:14:14.444Z,3.67
2018-12-08T16:16:44.547Z,3.30
2018-12-08T16:19:16.016Z,3.67
2018-12-08T16:21:45.266Z,2.93
2018-12-08T16:24:14.514Z,4.67
2018-12-08T16:26:45.723Z,7.90
2018-12-08T16:29:18.990Z,5.13
2018-12-08T16:31:48.233Z,6.37
2018-12-08T16:35:12.048Z,4.50
2018-12-08T16:37:41.295Z,7.90
2018-12-08T16:40:10.504Z,4.97
2018-12-08T16:42:42.031Z,7.10
2018-12-08T16:45:13.773Z,6.73
2018-12-08T16:47:43.223Z,5.17
2018-12-08T16:50:12.453Z,5.03
2018-12-08T16:52:42.340Z,6.47
2018-12-08T16:55:23.891Z,4.53
2018-12-08T16:57:53.196Z,3.27
2018-12-08T17:00:22.491Z,4.30
2018-12-08T17:02:51.685Z,4.27
2018-12-08T17:05:20.992Z,4.53
2018-12-08T17:07:50.290Z,3.43
2018-12-08T17:10:19.555Z,3.73
2018-12-08T17:12:50.059Z,6.10
2018-12-08T17:15:19.508Z,3.43
2018-12-08T17:17:48.805Z,3.77
2018-12-08T17:20:18.013Z,3.23
2018-12-08T17:22:47.244Z,2.90
2018-12-08T17:25:16.446Z,4.33
2018-12-08T17:27:45.848Z,2.83
2018-12-08T17:30:15.141Z,2.27
2018-12-08T17:32:44.419Z,2.73
2018-12-08T17:35:13.751Z,2.67
2018-12-08T17:37:42.987Z,2.43
2018-12-08T17:40:12.208Z,2.73
2018-12-08T17:42:41.518Z,5.27
2018-12-08T17:45:11.709Z,2.60
2018-12-08T17:47:41.171Z,3.33
2018-12-08T17:50:11.012Z,2.60
2018-12-08T18:06:44.172Z,3.10
2018-12-08T18:09:13.840Z,2.70
2018-12-08T18:11:46.150Z,3.10
2018-12-08T18:14:43.100Z,2.87
2018-12-08T18:17:12.334Z,3.43
2018-12-08T18:19:41.523Z,2.53
2018-12-08T18:22:10.719Z,4.53
2018-12-08T18:24:39.892Z,3.97
2018-12-08T18:27:09.371Z,2.27
2018-12-08T18:29:38.558Z,3.17
2018-12-08T18:32:08.091Z,3.37
2018-12-08T18:34:38.282Z,2.33
2018-12-08T18:37:07.563Z,4.07
2018-12-08T18:39:36.915Z,2.17
2018-12-08T18:42:06.115Z,2.97
2018-12-08T18:44:35.292Z,2.53
2018-12-08T18:47:04.705Z,1.93
2018-12-08T18:49:33.880Z,2.60
2018-12-08T18:52:03.071Z,2.10
2018-12-08T18:54:32.254Z,3.33
2018-12-08T18:57:01.542Z,3.50
2018-12-08T18:59:30.748Z,2.70
2018-12-08T19:02:00.016Z,1.70
2018-12-08T19:04:29.203Z,1.93
2018-12-08T19:06:58.518Z,2.47
2018-12-08T19:09:28.976Z,2.63
2018-12-08T19:11:58.786Z,3.30
2018-12-08T19:14:27.946Z,13.53
2018-12-08T19:16:57.256Z,6.70
2018-12-08T19:19:26.470Z,4.57
2018-12-08T19:21:56.122Z,3.30
2018-12-08T19:24:25.553Z,3.10
2018-12-08T19:26:55.440Z,5.43
2018-12-08T19:29:26.247Z,3.90
2018-12-08T19:31:56.922Z,6.50
2018-12-08T19:34:29.102Z,5.70
2018-12-08T19:37:00.653Z,5.87
2018-12-08T19:39:31.952Z,7.10
2018-12-08T19:42:03.711Z,5.50
2018-12-08T19:44:35.342Z,5.93
2018-12-08T19:47:06.283Z,3.50
2018-12-08T19:49:37.934Z,3.17
2018-12-08T19:52:09.437Z,2.17
2018-12-08T19:54:42.839Z,7.13
2018-12-08T19:57:15.043Z,5.50
2018-12-08T19:59:51.519Z,5.93
2018-12-08T20:02:23.215Z,2.90
2018-12-08T20:04:54.939Z,3.20
2018-12-08T20:07:25.875Z,4.27
2018-12-08T20:09:57.813Z,3.07
2018-12-08T20:12:29.940Z,2.40
2018-12-08T20:15:01.790Z,2.73
2018-12-08T20:17:31.463Z,2.20
2018-12-08T20:20:01.910Z,2.40
2018-12-08T20:22:32.374Z,3.03
2018-12-08T20:25:02.484Z,2.97
2018-12-08T20:27:34.178Z,7.10
2018-12-08T20:30:04.437Z,3.73
2018-12-08T20:32:34.620Z,4.30
2018-12-08T20:35:04.499Z,5.77
2018-12-08T20:37:34.928Z,5.50
2018-12-08T20:40:05.157Z,5.47
2018-12-08T20:42:35.677Z,5.53
2018-12-08T20:45:05.677Z,10.13
2018-12-08T20:47:35.169Z,4.37
2018-12-08T20:50:04.946Z,5.10
2018-12-08T20:52:34.238Z,6.47
2018-12-08T20:55:03.447Z,5.17
2018-12-08T20:57:32.836Z,4.97
2018-12-08T21:00:02.454Z,4.10
2018-12-08T21:02:31.751Z,6.77
2018-12-08T21:05:01.030Z,4.70
2018-12-08T21:07:30.654Z,5.17
2018-12-08T21:09:59.975Z,3.70
2018-12-08T21:12:29.591Z,6.17
2018-12-08T21:14:58.952Z,2.83
2018-12-08T21:17:28.334Z,4.93
2018-12-08T21:19:57.740Z,3.77
2018-12-08T21:22:26.924Z,4.67
2018-12-08T21:24:56.528Z,4.53
2018-12-08T21:27:26.509Z,2.40
2018-12-08T21:29:56.022Z,2.80
2018-12-08T21:32:25.323Z,4.43
2018-12-08T21:34:54.568Z,3.80
2018-12-08T21:37:23.867Z,2.83
2018-12-08T21:39:53.047Z,2.47
2018-12-08T21:42:22.307Z,2.70
2018-12-08T21:44:51.504Z,2.93
2018-12-08T21:47:20.762Z,4.60
2018-12-08T21:49:49.970Z,4.53
2018-12-08T21:52:19.134Z,3.57
2018-12-08T21:54:48.924Z,4.03
2018-12-08T21:57:18.206Z,2.73
2018-12-08T21:59:47.365Z,3.30
2018-12-08T22:02:16.538Z,4.17
2018-12-08T22:04:45.709Z,4.30
2018-12-08T22:07:14.871Z,2.47
2018-12-08T22:09:44.019Z,3.80
2018-12-08T22:12:13.163Z,3.47
2018-12-08T22:14:48.492Z,5.07
2018-12-08T22:17:17.774Z,2.50
2018-12-08T22:19:47.381Z,4.40
2018-12-08T22:22:16.639Z,2.30
2018-12-08T22:24:45.876Z,3.23
2018-12-08T22:27:15.139Z,2.30
2018-12-08T22:29:44.303Z,4.07
2018-12-08T22:32:13.446Z,2.23
2018-12-08T22:34:42.625Z,2.57
2018-12-08T22:37:11.798Z,3.17
2018-12-08T22:39:40.947Z,3.00
2018-12-08T22:42:10.091Z,2.10
2018-12-08T22:44:39.499Z,2.43
2018-12-08T22:47:08.818Z,2.00
2018-12-08T22:49:37.979Z,2.23
2018-12-08T22:52:07.173Z,2.60
2018-12-08T22:54:36.377Z,2.87
2018-12-08T22:57:05.610Z,3.10
2018-12-08T22:59:34.782Z,2.17
2018-12-08T23:02:03.982Z,3.83
2018-12-08T23:04:33.167Z,2.00
2018-12-08T23:07:04.115Z,2.53
2018-12-08T23:09:33.390Z,1.97
2018-12-08T23:12:02.642Z,2.73
2018-12-08T23:14:31.809Z,3.20
2018-12-08T23:17:00.982Z,3.17
2018-12-08T23:19:30.282Z,2.87
2018-12-08T23:21:59.437Z,1.87
2018-12-08T23:24:28.624Z,1.80
2018-12-08T23:26:58.007Z,2.33
2018-12-08T23:29:27.170Z,1.67
2018-12-08T23:31:56.323Z,4.10
2018-12-08T23:34:25.488Z,2.30
2018-12-08T23:36:54.669Z,2.27
2018-12-08T23:39:23.822Z,2.83
2018-12-08T23:41:52.979Z,2.43
2018-12-08T23:44:22.142Z,2.33
2018-12-08T23:46:51.291Z,1.90
2018-12-08T23:49:20.451Z,1.90
2018-12-08T23:51:49.738Z,2.33
2018-12-08T23:54:18.906Z,2.00
2018-12-08T23:56:50.270Z,2.23
2018-12-08T23:59:19.519Z,1.90
